Accueil
METAR-TAF:

METAR-TAF

Aéroports :

Koweït, Koweït

Aéroport international de Koweït

latitude: 29-13N, longitude: 047-59E, altitude: 55 m

Observation

Le bulletin a été fait il y a 52 minutes, à 01:00 UTC
Vent 3 kt de ouest
Température 33°C
Humidité 39%
Pression 1000 hPa
Visibilité: 8000 m
Ciel clair

METAR: OKBK 190100Z 28003KT 8000 SKC 33/17 Q1000 NOSIG

Heure: 04:52 (01:52 UTC)

Prévision

Le bulletin a été fait il y a 3 heures et 7 minutes, à 22:45 UTC
Prévision valable du 19 à 00 UTC au 20 à 06 UTC
Vent 12 kt de sud-ouest
Visibilité: 6000 m
Evoluant progressivement
du 19 à 03 UTC au 19 à 05 UTC
Vent 10 kt de nord/nord-ouest avec des rafales jusqu'à 20 kt

TAF: OKBK 182245Z 1900/2006 22012KT 6000 NSC BECMG 1903/1905 33010G20KT

Observations et prévisions météorologiques de plus de 4000 aéroports (messages METAR et TAF).

Les stations disponibles sont représentées par des disques jaunes et rouges sur la carte.

Passer la souris dessus pour voir le nom de la station.

Cliquer dessus pour voir les observations et prévisions météorologiques.

Pour changer de carte: cliquez sur les boutons verts avec une croix noire pour zoomer, sur le bouton vert avec un tiret pour effectuer un zoom arrière, ou sur les flèches vertes pour les cartes adjacentes.


METAR-TAF: